createdAt,value
2018-08-28T00:02:10.432Z,20.40
2018-08-28T00:04:39.368Z,20.30
2018-08-28T00:07:07.932Z,20.50
2018-08-28T00:09:36.637Z,20.10
2018-08-28T00:12:05.253Z,20.30
2018-08-28T00:14:33.797Z,20.30
2018-08-28T00:17:02.437Z,20.50
2018-08-28T00:19:31.703Z,20.30
2018-08-28T00:22:00.302Z,20.20
2018-08-28T00:24:29.229Z,20.30
2018-08-28T00:26:59.023Z,20.30
2018-08-28T00:29:28.559Z,20.40
2018-08-28T00:31:57.449Z,20.20
2018-08-28T00:34:26.147Z,20.20
2018-08-28T00:36:54.806Z,20.30
2018-08-28T00:39:23.733Z,20.30
2018-08-28T00:41:52.554Z,20.10
2018-08-28T00:44:21.766Z,20.20
2018-08-28T00:46:51.766Z,20.50
2018-08-28T00:49:20.640Z,20.00
2018-08-28T00:51:49.203Z,20.20
2018-08-28T00:54:17.968Z,20.30
2018-08-28T00:56:47.105Z,20.20
2018-08-28T00:59:15.888Z,20.20
2018-08-28T01:01:44.505Z,20.20
2018-08-28T01:04:13.112Z,20.20
2018-08-28T01:06:42.033Z,20.20
2018-08-28T01:09:10.860Z,20.30
2018-08-28T01:11:39.387Z,20.30
2018-08-28T01:14:08.030Z,20.20
2018-08-28T01:16:36.610Z,20.10
2018-08-28T01:19:05.871Z,20.30
2018-08-28T01:21:34.495Z,20.10
2018-08-28T01:24:03.273Z,20.40
2018-08-28T01:26:31.872Z,20.10
2018-08-28T01:29:00.521Z,20.20
2018-08-28T01:31:29.835Z,20.30
2018-08-28T01:33:59.405Z,20.20
2018-08-28T01:36:28.018Z,20.00
2018-08-28T01:38:56.727Z,20.10
2018-08-28T01:41:26.217Z,20.40
2018-08-28T01:43:55.007Z,20.00
2018-08-28T01:46:23.652Z,20.20
2018-08-28T01:48:52.287Z,20.20
2018-08-28T01:51:20.898Z,20.20
2018-08-28T01:53:49.857Z,20.30
2018-08-28T01:56:18.513Z,20.00
2018-08-28T01:58:47.159Z,20.00
2018-08-28T02:01:16.364Z,20.20
2018-08-28T02:03:44.983Z,20.30
2018-08-28T02:06:13.530Z,20.20
2018-08-28T02:08:42.177Z,20.30
2018-08-28T02:11:10.859Z,20.20
2018-08-28T02:13:39.419Z,20.10
2018-08-28T02:16:07.997Z,20.20
2018-08-28T02:18:36.586Z,20.50
2018-08-28T02:21:05.335Z,20.40
2018-08-28T02:23:34.017Z,20.10
2018-08-28T02:26:02.671Z,20.20
2018-08-28T02:28:31.268Z,20.00
2018-08-28T02:30:59.848Z,20.20
2018-08-28T02:33:28.478Z,20.00
2018-08-28T02:35:57.055Z,20.30
2018-08-28T02:38:25.640Z,20.20
2018-08-28T02:40:54.292Z,20.10
2018-08-28T02:43:22.924Z,20.10
2018-08-28T02:45:51.515Z,20.10
2018-08-28T02:48:20.191Z,20.30
2018-08-28T02:50:48.723Z,20.40
2018-08-28T02:53:18.012Z,20.00
2018-08-28T02:55:46.642Z,20.00
2018-08-28T02:58:15.370Z,20.10
2018-08-28T03:00:43.940Z,20.20
2018-08-28T03:03:12.552Z,20.00
2018-08-28T03:05:41.154Z,19.90
2018-08-28T03:08:09.793Z,20.20
2018-08-28T03:10:38.484Z,20.10
2018-08-28T03:13:07.268Z,20.30
2018-08-28T03:15:36.087Z,20.10
2018-08-28T03:18:04.683Z,20.10
2018-08-28T03:20:33.246Z,20.10
2018-08-28T03:23:01.856Z,19.90
2018-08-28T03:25:30.585Z,20.00
2018-08-28T03:27:59.272Z,20.00
2018-08-28T03:30:27.909Z,20.20
2018-08-28T03:32:56.524Z,20.00
2018-08-28T03:35:25.104Z,20.00
2018-08-28T03:37:53.704Z,20.20
2018-08-28T03:40:22.381Z,19.90
2018-08-28T03:42:50.954Z,20.00
2018-08-28T03:45:19.578Z,19.90
2018-08-28T03:47:48.184Z,19.90
2018-08-28T03:50:16.860Z,19.80
2018-08-28T03:52:45.588Z,20.00
2018-08-28T03:55:14.227Z,20.00
2018-08-28T03:57:43.305Z,20.00
2018-08-28T04:00:11.951Z,20.00
2018-08-28T04:02:40.605Z,19.80
2018-08-28T04:05:09.356Z,19.90
2018-08-28T04:07:38.093Z,19.70
2018-08-28T04:10:06.656Z,19.80
2018-08-28T04:12:35.275Z,19.90
2018-08-28T04:15:04.020Z,20.10
2018-08-28T04:17:36.808Z,20.20
2018-08-28T04:20:05.472Z,19.70
2018-08-28T04:22:34.116Z,20.10
2018-08-28T04:25:02.675Z,19.70
2018-08-28T04:27:31.292Z,20.10
2018-08-28T04:29:59.842Z,20.10
2018-08-28T04:32:28.610Z,20.00
2018-08-28T04:34:57.212Z,20.00
2018-08-28T04:37:25.800Z,20.00
2018-08-28T04:39:54.755Z,20.00
2018-08-28T04:42:23.535Z,20.00
2018-08-28T04:44:52.225Z,20.10
2018-08-28T04:47:20.772Z,20.00
2018-08-28T04:49:49.602Z,20.10
2018-08-28T04:52:18.374Z,20.20
2018-08-28T04:54:47.399Z,19.90
2018-08-28T04:57:17.080Z,20.00
2018-08-28T04:59:45.892Z,19.90
2018-08-28T05:02:14.644Z,19.90
2018-08-28T05:04:43.256Z,19.80
2018-08-28T05:07:12.609Z,20.00
2018-08-28T05:09:41.375Z,19.90
2018-08-28T05:12:10.026Z,20.00
2018-08-28T05:14:38.657Z,19.70
2018-08-28T05:17:07.447Z,20.20
2018-08-28T05:19:36.100Z,19.90
2018-08-28T05:22:04.796Z,19.90
2018-08-28T05:24:33.438Z,19.80
2018-08-28T05:27:02.101Z,19.70
2018-08-28T05:29:30.723Z,20.10
2018-08-28T05:31:59.506Z,20.20
2018-08-28T05:34:28.248Z,20.40
2018-08-28T05:36:56.987Z,20.10
2018-08-28T05:39:25.627Z,20.10
2018-08-28T05:41:54.458Z,20.20
2018-08-28T05:44:23.052Z,20.30
2018-08-28T05:46:51.830Z,20.30
2018-08-28T05:49:20.400Z,20.40
2018-08-28T05:51:49.030Z,20.10
2018-08-28T05:54:17.753Z,20.40
2018-08-28T05:56:46.432Z,20.30
2018-08-28T05:59:15.104Z,20.50
2018-08-28T06:01:43.705Z,20.50
2018-08-28T06:04:12.362Z,20.30
2018-08-28T06:06:42.024Z,20.20
2018-08-28T06:09:10.637Z,20.20
2018-08-28T06:11:39.297Z,20.20
2018-08-28T06:14:07.874Z,20.40
2018-08-28T06:16:36.595Z,20.40
2018-08-28T06:19:05.376Z,20.40
2018-08-28T06:21:34.070Z,20.40
2018-08-28T06:24:02.734Z,20.50
2018-08-28T06:26:31.623Z,20.60
2018-08-28T06:29:00.153Z,20.60
2018-08-28T06:31:29.057Z,20.60
2018-08-28T06:33:57.775Z,20.50
2018-08-28T06:36:26.368Z,20.60
2018-08-28T06:38:55.804Z,20.50
2018-08-28T06:41:24.419Z,20.40
2018-08-28T06:43:53.059Z,20.50
2018-08-28T06:46:22.786Z,20.00
2018-08-28T06:48:52.095Z,20.60
2018-08-28T06:51:20.852Z,20.60
2018-08-28T06:53:49.588Z,20.70
2018-08-28T06:56:18.299Z,20.50
2018-08-28T06:58:47.076Z,20.50
2018-08-28T07:01:15.678Z,20.60
2018-08-28T07:03:44.356Z,20.70
2018-08-28T07:06:13.022Z,20.70
2018-08-28T07:08:41.827Z,20.90
2018-08-28T07:11:10.463Z,20.50
2018-08-28T07:13:39.087Z,20.90
2018-08-28T07:16:07.943Z,21.10
2018-08-28T07:18:36.569Z,20.80
2018-08-28T07:21:05.380Z,20.50
2018-08-28T07:23:34.190Z,20.70
2018-08-28T07:26:02.897Z,20.80
2018-08-28T07:28:31.467Z,20.90
2018-08-28T07:31:00.112Z,20.80
2018-08-28T07:33:28.789Z,20.90
2018-08-28T07:35:57.513Z,20.80
2018-08-28T07:38:26.190Z,21.00
2018-08-28T07:40:56.037Z,20.90
2018-08-28T07:43:24.633Z,20.80
2018-08-28T07:45:53.325Z,21.10
2018-08-28T07:48:22.014Z,20.90
2018-08-28T07:50:50.656Z,21.00
2018-08-28T07:53:19.279Z,21.00
2018-08-28T07:55:48.639Z,21.00
2018-08-28T07:58:17.583Z,21.20
2018-08-28T08:00:46.641Z,21.30
2018-08-28T08:03:19.542Z,21.30
2018-08-28T08:05:48.220Z,21.30
2018-08-28T08:08:16.964Z,21.10
2018-08-28T08:10:45.584Z,21.30
2018-08-28T08:13:14.364Z,21.40
2018-08-28T08:15:43.008Z,21.60
2018-08-28T08:18:11.866Z,21.60
2018-08-28T08:20:40.993Z,21.70
2018-08-28T08:23:10.528Z,21.70
2018-08-28T08:25:39.684Z,21.80
2018-08-28T08:28:09.414Z,21.90
2018-08-28T08:30:37.953Z,22.00
2018-08-28T08:33:06.771Z,22.00
2018-08-28T08:35:35.594Z,22.00
2018-08-28T08:38:04.354Z,22.10
2018-08-28T08:40:32.980Z,22.10
2018-08-28T08:43:01.689Z,22.00
2018-08-28T08:45:30.310Z,22.10
2018-08-28T08:47:58.985Z,22.20
2018-08-28T08:50:27.621Z,22.20
2018-08-28T08:52:56.601Z,22.10
2018-08-28T08:55:25.321Z,22.10
2018-08-28T08:57:54.015Z,21.90
2018-08-28T09:00:22.593Z,21.80
2018-08-28T09:02:51.274Z,22.00
2018-08-28T09:05:20.709Z,22.10
2018-08-28T09:07:49.817Z,22.10
2018-08-28T09:10:18.509Z,22.20
2018-08-28T09:12:47.571Z,22.20
2018-08-28T09:15:16.272Z,22.20
2018-08-28T09:17:44.917Z,22.40
2018-08-28T09:20:13.710Z,22.40
2018-08-28T09:22:42.370Z,22.50
2018-08-28T09:25:10.968Z,22.50
2018-08-28T09:27:39.799Z,22.60
2018-08-28T09:30:09.218Z,22.60
2018-08-28T09:32:37.907Z,22.60
2018-08-28T09:35:06.652Z,22.70
2018-08-28T09:37:35.430Z,22.70
2018-08-28T09:40:04.475Z,22.60
2018-08-28T09:42:34.088Z,22.70
2018-08-28T09:45:02.768Z,22.80
2018-08-28T09:47:31.556Z,22.90
2018-08-28T09:50:00.180Z,23.00
2018-08-28T09:52:29.004Z,23.10
2018-08-28T09:54:57.615Z,23.10
2018-08-28T09:57:26.779Z,23.20
2018-08-28T09:59:55.445Z,23.10
2018-08-28T10:02:24.300Z,23.10
2018-08-28T10:04:52.895Z,23.10
2018-08-28T10:07:21.506Z,23.10
2018-08-28T10:09:50.204Z,23.10
2018-08-28T10:12:18.901Z,23.10
2018-08-28T10:14:48.375Z,23.20
2018-08-28T10:17:17.242Z,23.20
2018-08-28T10:19:45.812Z,23.20
2018-08-28T10:22:14.452Z,23.10
2018-08-28T10:24:43.132Z,23.10
2018-08-28T10:27:11.798Z,23.20
2018-08-28T10:29:44.613Z,23.30
2018-08-28T10:32:13.343Z,23.30
2018-08-28T10:34:42.045Z,23.30
2018-08-28T10:37:10.775Z,23.40
2018-08-28T10:39:39.341Z,23.50
2018-08-28T10:42:07.965Z,23.60
2018-08-28T10:44:36.624Z,23.60
2018-08-28T10:47:05.700Z,23.70
2018-08-28T10:49:34.364Z,23.70
2018-08-28T10:52:03.465Z,23.60
2018-08-28T10:54:33.564Z,23.60
2018-08-28T10:57:03.352Z,23.70
2018-08-28T10:59:32.551Z,23.60
2018-08-28T11:02:01.112Z,23.60
2018-08-28T11:04:29.880Z,23.60
2018-08-28T11:06:58.693Z,23.70
2018-08-28T11:09:28.081Z,23.70
2018-08-28T11:11:56.792Z,23.70
2018-08-28T11:14:25.594Z,23.50
2018-08-28T11:16:54.225Z,23.50
2018-08-28T11:19:23.543Z,23.60
2018-08-28T11:21:52.275Z,23.70
2018-08-28T11:24:21.078Z,23.70
2018-08-28T11:26:50.310Z,23.80
2018-08-28T11:29:18.880Z,23.80
2018-08-28T11:31:47.779Z,23.70
2018-08-28T11:34:16.437Z,23.70
2018-08-28T11:36:45.254Z,23.80
2018-08-28T11:39:14.664Z,23.80
2018-08-28T11:41:43.521Z,23.90
2018-08-28T11:44:12.164Z,24.10
2018-08-28T11:46:40.762Z,24.10
2018-08-28T11:49:09.459Z,24.20
2018-08-28T11:51:38.172Z,24.20
2018-08-28T11:54:07.291Z,24.30
2018-08-28T11:56:36.232Z,24.40
2018-08-28T11:59:04.814Z,24.50
2018-08-28T12:01:33.627Z,24.70
2018-08-28T12:04:02.344Z,24.60
2018-08-28T12:06:31.114Z,24.50
2018-08-28T12:08:59.986Z,24.50
2018-08-28T12:11:28.756Z,24.50
2018-08-28T12:13:57.339Z,24.40
2018-08-28T12:16:25.978Z,24.40
2018-08-28T12:18:55.208Z,24.40
2018-08-28T12:21:24.640Z,24.50
2018-08-28T12:23:53.244Z,24.50
2018-08-28T12:26:21.901Z,24.60
2018-08-28T12:28:50.500Z,24.80
2018-08-28T12:31:19.236Z,24.90
2018-08-28T12:33:48.242Z,25.00
2018-08-28T12:36:16.887Z,24.90
2018-08-28T12:38:45.495Z,24.90
2018-08-28T12:41:15.233Z,24.80
2018-08-28T12:43:44.550Z,24.80
2018-08-28T12:46:13.156Z,24.90
2018-08-28T12:48:41.942Z,25.00
2018-08-28T12:51:10.687Z,25.00
2018-08-28T12:53:39.504Z,25.10
2018-08-28T12:56:08.218Z,25.10
2018-08-28T12:58:36.894Z,25.20
2018-08-28T13:01:05.722Z,25.20
2018-08-28T13:03:34.399Z,25.20
2018-08-28T13:06:03.704Z,25.30
2018-08-28T13:08:32.448Z,25.40
2018-08-28T13:11:00.970Z,25.40
2018-08-28T13:13:29.612Z,25.50
2018-08-28T13:15:58.800Z,25.50
2018-08-28T13:18:27.454Z,25.60
2018-08-28T13:20:56.218Z,25.50
2018-08-28T13:23:25.012Z,25.50
2018-08-28T13:25:53.773Z,25.50
2018-08-28T13:28:22.344Z,25.50
2018-08-28T13:30:51.190Z,25.50
2018-08-28T13:33:19.820Z,25.40
2018-08-28T13:35:48.425Z,25.30
2018-08-28T13:38:17.063Z,25.40
2018-08-28T13:40:45.898Z,25.50
2018-08-28T13:43:14.168Z,25.60
2018-08-28T13:45:42.825Z,25.70
2018-08-28T13:48:11.499Z,25.80
2018-08-28T13:50:40.300Z,25.80
2018-08-28T13:53:09.116Z,25.80
2018-08-28T13:55:37.741Z,25.80
2018-08-28T13:58:06.503Z,25.90
2018-08-28T14:00:35.171Z,25.70
2018-08-28T14:03:03.821Z,25.50
2018-08-28T14:05:32.543Z,25.40
2018-08-28T14:08:01.135Z,25.40
2018-08-28T14:10:30.064Z,25.40
2018-08-28T14:12:58.733Z,25.40
2018-08-28T14:15:27.268Z,25.50
2018-08-28T14:17:55.895Z,25.70
2018-08-28T14:20:24.609Z,25.80
2018-08-28T14:22:53.307Z,25.90
2018-08-28T14:25:21.921Z,25.80
2018-08-28T14:27:50.658Z,25.80
2018-08-28T14:30:19.229Z,25.80
2018-08-28T14:32:47.800Z,25.90
2018-08-28T14:35:16.517Z,25.80
2018-08-28T14:37:45.408Z,25.70
2018-08-28T14:40:13.988Z,25.80
2018-08-28T14:42:43.357Z,25.80
2018-08-28T14:45:11.912Z,25.80
2018-08-28T14:47:40.573Z,25.80
2018-08-28T14:50:09.314Z,25.70
2018-08-28T14:52:37.959Z,25.70
2018-08-28T14:55:07.909Z,25.60
2018-08-28T14:57:36.509Z,25.60
2018-08-28T15:00:06.400Z,25.60
2018-08-28T15:02:35.009Z,25.70
2018-08-28T15:05:04.566Z,25.60
2018-08-28T15:07:33.579Z,25.60
2018-08-28T15:10:02.604Z,25.50
2018-08-28T15:12:31.572Z,25.40
2018-08-28T15:15:01.210Z,25.40
2018-08-28T15:17:29.836Z,25.50
2018-08-28T15:19:58.360Z,25.50
2018-08-28T15:22:27.095Z,25.50
2018-08-28T15:24:55.689Z,25.50
2018-08-28T15:27:24.478Z,25.50
2018-08-28T15:29:53.215Z,25.50
2018-08-28T15:32:22.412Z,25.50
2018-08-28T15:34:51.104Z,25.50
2018-08-28T15:37:19.785Z,25.50
2018-08-28T15:39:48.368Z,25.60
2018-08-28T15:42:17.214Z,25.60
2018-08-28T15:44:45.827Z,25.80
2018-08-28T15:47:14.507Z,25.80
2018-08-28T15:49:43.258Z,26.00
2018-08-28T15:52:11.892Z,25.80
2018-08-28T15:54:40.491Z,25.80
2018-08-28T15:57:09.986Z,25.80
2018-08-28T15:59:38.601Z,25.80
2018-08-28T16:02:07.166Z,25.80
2018-08-28T16:04:35.972Z,25.80
2018-08-28T16:07:05.126Z,25.70
2018-08-28T16:09:34.196Z,25.80
2018-08-28T16:12:02.959Z,25.80
2018-08-28T16:14:31.581Z,25.80
2018-08-28T16:17:00.289Z,25.80
2018-08-28T16:19:28.906Z,25.80
2018-08-28T16:21:59.343Z,25.80
2018-08-28T16:24:27.992Z,25.80
2018-08-28T16:26:56.684Z,25.80
2018-08-28T16:29:25.622Z,26.00
2018-08-28T16:31:54.231Z,26.10
2018-08-28T16:34:23.253Z,26.20
2018-08-28T16:36:51.939Z,26.10
2018-08-28T16:39:20.614Z,26.10
2018-08-28T16:41:49.352Z,26.20
2018-08-28T16:44:18.043Z,26.10
2018-08-28T16:46:46.759Z,26.00
2018-08-28T16:49:15.440Z,25.90
2018-08-28T16:51:44.080Z,26.00
2018-08-28T16:54:12.842Z,26.00
2018-08-28T16:56:43.525Z,26.00
2018-08-28T16:59:12.256Z,26.00
2018-08-28T17:01:41.011Z,25.90
2018-08-28T17:04:09.566Z,25.90
2018-08-28T17:06:38.325Z,25.90
2018-08-28T17:09:07.323Z,25.80
2018-08-28T17:11:36.005Z,25.70
2018-08-28T17:14:04.701Z,25.60
2018-08-28T17:16:33.572Z,25.60
2018-08-28T17:19:02.338Z,25.60
2018-08-28T17:21:31.187Z,25.50
2018-08-28T17:23:59.820Z,25.40
2018-08-28T17:26:28.649Z,25.40
2018-08-28T17:28:57.246Z,25.40
2018-08-28T17:31:25.841Z,25.30
2018-08-28T17:33:54.516Z,25.40
2018-08-28T17:36:23.135Z,25.40
2018-08-28T17:38:51.757Z,25.50
2018-08-28T17:41:20.383Z,25.50
2018-08-28T17:43:49.037Z,25.60
2018-08-28T17:46:17.802Z,25.60
2018-08-28T17:48:47.037Z,25.70
2018-08-28T17:51:15.605Z,25.70
2018-08-28T17:53:44.448Z,25.70
2018-08-28T17:56:13.069Z,25.80
2018-08-28T17:58:41.756Z,25.80
2018-08-28T18:01:10.524Z,25.80
2018-08-28T18:03:39.380Z,25.80
2018-08-28T18:06:08.058Z,25.80
2018-08-28T18:08:36.798Z,25.80
2018-08-28T18:11:05.620Z,25.80
2018-08-28T18:13:34.282Z,25.80
2018-08-28T18:16:02.945Z,25.70
2018-08-28T18:18:32.547Z,25.70
2018-08-28T18:21:01.329Z,25.70
2018-08-28T18:23:30.188Z,25.60
2018-08-28T18:25:58.908Z,25.60
2018-08-28T18:28:27.810Z,25.60
2018-08-28T18:30:57.215Z,25.60
2018-08-28T18:33:26.010Z,25.50
2018-08-28T18:35:54.707Z,25.50
2018-08-28T18:38:23.405Z,25.50
2018-08-28T18:40:52.328Z,25.40
2018-08-28T18:43:20.957Z,25.40
2018-08-28T18:45:49.562Z,25.30
2018-08-28T18:48:18.198Z,25.30
2018-08-28T18:50:47.418Z,25.20
2018-08-28T18:53:16.654Z,25.10
2018-08-28T18:55:45.287Z,25.10
2018-08-28T18:58:13.968Z,25.10
2018-08-28T19:00:43.596Z,25.00
2018-08-28T19:03:12.407Z,25.00
2018-08-28T19:05:41.188Z,24.90
2018-08-28T19:08:09.733Z,24.90
2018-08-28T19:10:38.913Z,24.80
2018-08-28T19:13:08.271Z,24.80
2018-08-28T19:15:36.972Z,24.80
2018-08-28T19:18:05.707Z,24.60
2018-08-28T19:20:34.361Z,24.60
2018-08-28T19:23:03.073Z,24.60
2018-08-28T19:25:31.808Z,24.50
2018-08-28T19:28:01.211Z,24.50
2018-08-28T19:30:29.875Z,24.50
2018-08-28T19:32:59.305Z,24.50
2018-08-28T19:35:27.936Z,24.40
2018-08-28T19:37:56.621Z,24.30
2018-08-28T19:40:25.807Z,24.30
2018-08-28T19:42:54.475Z,24.30
2018-08-28T19:45:23.238Z,24.20
2018-08-28T19:47:51.941Z,24.20
2018-08-28T19:50:20.578Z,24.20
2018-08-28T19:52:49.313Z,24.20
2018-08-28T19:55:18.182Z,24.20
2018-08-28T19:57:46.754Z,24.20
2018-08-28T20:00:15.502Z,24.20
2018-08-28T20:02:44.125Z,24.20
2018-08-28T20:05:12.700Z,24.20
2018-08-28T20:07:41.297Z,24.20
2018-08-28T20:10:10.048Z,24.20
2018-08-28T20:12:38.753Z,24.10
2018-08-28T20:15:07.441Z,24.00
2018-08-28T20:17:36.132Z,24.00
2018-08-28T20:20:05.296Z,23.90
2018-08-28T20:22:33.972Z,23.90
2018-08-28T20:25:02.685Z,23.90
2018-08-28T20:27:31.678Z,23.90
2018-08-28T20:30:00.436Z,23.90
2018-08-28T20:32:29.067Z,23.80
2018-08-28T20:34:58.683Z,23.80
2018-08-28T20:37:27.572Z,23.80
2018-08-28T20:39:56.241Z,23.80
2018-08-28T20:42:24.845Z,23.70
2018-08-28T20:44:54.192Z,23.70
2018-08-28T20:47:23.033Z,23.70
2018-08-28T20:49:52.211Z,23.80
2018-08-28T20:52:20.827Z,23.80
2018-08-28T20:54:50.493Z,23.70
2018-08-28T20:57:19.643Z,23.80
2018-08-28T20:59:48.537Z,23.70
2018-08-28T21:02:17.747Z,23.80
2018-08-28T21:04:47.860Z,23.80
2018-08-28T21:07:16.440Z,23.80
2018-08-28T21:09:45.047Z,23.70
2018-08-28T21:12:15.488Z,23.70
2018-08-28T21:14:44.355Z,23.70
2018-08-28T21:17:13.032Z,23.80
2018-08-28T21:19:42.424Z,23.80
2018-08-28T21:22:11.204Z,23.80
2018-08-28T21:24:41.015Z,23.70
2018-08-28T21:27:11.330Z,23.70
2018-08-28T21:29:40.461Z,23.70
2018-08-28T21:32:10.056Z,23.60
2018-08-28T21:34:38.942Z,23.60
2018-08-28T21:37:07.805Z,23.60
2018-08-28T21:39:36.717Z,23.60
2018-08-28T21:42:05.677Z,23.50
2018-08-28T21:44:34.479Z,23.50
2018-08-28T21:47:04.378Z,23.30
2018-08-28T21:49:33.586Z,23.20
2018-08-28T21:52:02.470Z,23.00
2018-08-28T21:54:31.967Z,22.90
2018-08-28T21:57:01.267Z,22.80
2018-08-28T21:59:30.185Z,22.80
2018-08-28T22:01:59.706Z,22.70
2018-08-28T22:04:29.623Z,22.60
2018-08-28T22:08:03.279Z,22.50
2018-08-28T22:10:32.464Z,22.40
2018-08-28T22:13:01.828Z,22.30
2018-08-28T22:15:30.460Z,22.30
2018-08-28T22:17:59.046Z,22.30
2018-08-28T22:20:27.660Z,22.30
2018-08-28T22:22:56.973Z,22.30
2018-08-28T22:25:25.914Z,22.20
2018-08-28T22:27:54.548Z,22.20
2018-08-28T22:30:24.598Z,22.20
2018-08-28T22:32:53.437Z,22.20
2018-08-28T22:35:22.609Z,22.10
2018-08-28T22:37:51.481Z,22.00
2018-08-28T22:40:20.169Z,21.90
2018-08-28T22:42:48.856Z,21.90
2018-08-28T22:45:17.577Z,21.90
2018-08-28T22:47:46.192Z,21.80
2018-08-28T22:50:14.898Z,21.80
2018-08-28T22:52:43.688Z,21.70
2018-08-28T22:55:13.003Z,21.70
2018-08-28T22:57:41.593Z,21.60
2018-08-28T23:00:10.216Z,21.60
2018-08-28T23:02:40.061Z,21.50
2018-08-28T23:05:08.710Z,21.50
2018-08-28T23:07:37.348Z,21.50
2018-08-28T23:10:06.093Z,21.40
2018-08-28T23:12:34.867Z,21.40
2018-08-28T23:15:04.137Z,21.30
2018-08-28T23:17:32.734Z,21.40
2018-08-28T23:20:01.328Z,21.30
2018-08-28T23:22:29.942Z,21.30
2018-08-28T23:24:58.945Z,21.20
2018-08-28T23:27:27.691Z,21.10
2018-08-28T23:29:56.266Z,21.10
2018-08-28T23:32:24.848Z,21.00
2018-08-28T23:34:53.472Z,20.90
2018-08-28T23:37:22.343Z,20.90
2018-08-28T23:39:51.055Z,21.00
2018-08-28T23:42:19.829Z,20.90
2018-08-28T23:44:49.032Z,20.80
2018-08-28T23:47:17.588Z,20.80
2018-08-28T23:49:46.463Z,20.70
2018-08-28T23:52:15.091Z,20.70
2018-08-28T23:54:43.758Z,20.60
2018-08-28T23:57:12.445Z,20.60
2018-08-28T23:59:41.085Z,20.70
